航空気象通報

ウインドサーファーのための航空気象通報による風予報です。

1/31-2/1の航空気象通報(国内、海外)

2012年01月31日 23時33分44秒 | TAF

羽田空港
TAF RJTT 310844Z 3109/0112 36017KT 9999 FEW030
      BECMG 3113/3115 01007KT
      BECMG 3121/3124 23020KT
      TEMPO 0100/0106 23027G40KT
      BECMG 0106/0109 27018KT
日本時間31日18-22時:360度から17ノットの風
22-24時:風が変化
1日00-06時:010度から7ノットの風
06-09時:風が変化
09-15時:230度から20ノットの風
但し、09-15時の間:ときどき230度から27ノット、突風40ノット
15-18時:風が変化
18-21時:270度から18ノットの風

静岡空港
TAF RJNS 310846Z 3109/0112 27010KT 9999 FEW030
      TEMPO 0100/0109 26020G30KT
日本時間31日18時-1日21時:270度から10ノットの風
但し、1日09-18時の間:ときどき260度から20ノット、突風30ノット

福岡空港
TAF RJFF 310851Z 3109/0112 30005KT 9999 FEW040 SCT045
      BECMG 3109/3111 17010KT
      TEMPO 3118/3121 23015G25KT
      BECMG 3121/3124 30020G30KT
      BECMG 0106/0109 31010KT
日本時間31日18-20時:300度から5ノットの風
20-22時:風が変化
22時-1日06時:170度から10ノットの風
但し、1日03-06時の間:ときどき230度から15ノット、突風25ノット
06-09時:風が変化
09-15時:300度から20ノット、突風30ノット
15-18時:風が変化
12-21時:310度から10ノットの風

那覇空港
TAF ROAH 310837Z 3109/0112 01011KT 9999 FEW025 BKN045
日本時間31日18時-1日21時:010度から11ノットの風

マウイのカフルイ空港
TAF PHOG 311123Z 3112/0112 05010G18KT P6SM FEW050
     FM311900 05017G25KT P6SM FEW050
     FM010600 05010KT P6SM SCT050
ハワイ時間31日02-09時:140度から4ノットの風
09-20時:050度から17ノット、突風25ノット
20時-1日02時:050度から10ノットの風

サイパン空港
TAF PGSN 311120Z 3112/0112 04007KT P6SM SCT020
マリアナ時間31日22時-1日08時:040度から7ノットの風

コメント
この記事をはてなブックマークに追加

1/27-1/28の航空気象通報(国内、海外)

2012年01月27日 17時54分08秒 | TAF

羽田空港
TAF RJTT 270241Z 2703/2806 36010KT 9999 FEW030
      BECMG 2715/2718 30006KT
      BECMG 2803/2806 35016KT
日本時間27日12-24時:360度から10ノットの風
28日00-03時:風が変化
03-12時:300度から6ノットの風
12-15時:風が変化
15時:350度から16ノットの風

富士山静岡空港
TAF AMD RJNS 270551Z 2705/2806 27016KT 9999 FEW030
      TEMPO 2705/2709 27018G28KT
日本時間27日14時-28日15時:270度から16ノットの風
但し、27日14-18時の間:270度から18ノット、突風28ノット

福岡空港
TAF RJFF 270239Z 2703/2806 16010KT 9999 FEW010 SCT025 BKN035
      BECMG 2704/2706 25005KT
      BECMG 2707/2709 16006KT
      BECMG 2803/2806 05007KT
日本時間27日12-13時:160度から10ノットの風
13-15時:風が変化
15-16時:250度から5ノットの風
16-18時:風が変化
18-28日12時:160度から6ノットの風
12-15時:風が変化
15時:050度から7ノットの風

那覇空港
TAF ROAH 270241Z 2703/2806 15011KT 9999 FEW030 BKN045
      TEMPO 2715/2718 3000 +SHRA SCT015 FEW025CB BKN030
      BECMG 2803/2806 31010KT
日本時間27日12時-28日12時:150度から11ノットの風
12-15時:風が変化
15時:310度から10ノットの風

但し、28日00-03時の間:ときどき

マウイのカフルイ空港
TAF PHOG 270520Z 2706/2806 19008KT P6SM FEW050
     FM271000 16006KT P6SM SCT050 BKN080
     FM271800 VRB06KT P6SM SCT050 BKN080
     FM280000 VRB06KT P6SM VCSH SCT025 BKN050
     FM280300 02010KT P6SM FEW025 BKN050
ハワイ時間26日20-24時:190度から8ノットの風

27日00-08時:160度から6ノットの風
08-14時:風向不定6ノットの風
14-17時:風向不定6ノットの風
17-20時:220度から10ノットの風

サイパン空港
TAF AMD PGSN 270821Z 2708/2806 05014G24KT P6SM VCSH SCT020 BKN050
マリアナ時間27日18時-28日16時:050度から14ノット、突風24ノット

コメント
この記事をはてなブックマークに追加

1/25-1/26の航空気象通報(国内、海外)

2012年01月25日 22時13分06秒 | TAF

羽田空港
TAF RJTT 250843Z 2509/2612 01008KT 9999 FEW020 SCT040
      BECMG 2518/2521 35020KT
      BECMG 2603/2606 36010KT
日本時間25日18時-26日03時:010度から8ノットの風
03-06時:風が変化
06-12時:350度から20ノットの風
12-15時:風が変化
15-21時:360度から10ノットの風

静岡空港
TAF RJNS 250851Z 2509/2612 28016KT 9999 FEW030
日本時間25日18時-26日21時:280度から16ノットの風

福岡空港
TAF RJFF 250848Z 2509/2612 34013KT 9999 FEW035 BKN045
      BECMG 2521/2524 32003KT
      BECMG 2609/2612 14007KT
日本時間25日18時-26日06時:340度から13ノットの風
06-09時:風が変化
09-18時:320度から3ノットの風
18-21時:風が変化
21時:140度から7ノットの風

那覇空港
TAF ROAH 250836Z 2509/2612 01020KT 9999 FEW025 BKN040
日本時間25日18時-26日21時:010度から20ノットの風

マウイのカフルイ空港
TAF PHOG 251139Z 2512/2612 14004KT P6SM SKC
     FM252000 03010KT P6SM FEW035 SCT050
     FM260500 14005KT P6SM SCT050
ハワイ時間25日02-10時:140度から4ノットの風
10-19時:030度から10ノットの風
19時-26日02時:140度から5ノットの風

サイパン空港
TAF PGSN 251123Z 2512/2612 08011KT P6SM VCSH SCT023
マリアナ時間25日22時-26日22時:080度から11ノットの風

コメント
この記事をはてなブックマークに追加

1/24-1/25の航空気象通報(国内、海外)

2012年01月25日 00時20分36秒 | TAF

羽田空港
TAF RJTT 240840Z 2409/2512 12010KT 9999 FEW020 SCT050
      TEMPO 2410/2413 4000 -SHSN
      BECMG 2413/2415 34006KT
      BECMG 2500/2503 20006KT
      BECMG 2506/2509 35014KT
日本時間24日18-22時:120度から10ノットの風
22-24時:風が変化
25日00-09時:340度から6ノットの風
09-12時:風が変化
12-15時:200度から6ノットの風
15-18時:風が変化
18-21時:350度から14ノットの風

但し、24日19時-22時の間:ときどき

静岡空港
TAF RJNS 240841Z 2409/2512 27016KT 9999 FEW030
日本時間24日18時-25日21時:270度から16ノットの風

福岡空港
TAF RJFF 240853Z 2409/2512 32006KT 9999 -SHSN FEW025 BKN035
      BECMG 2412/2414 17003KT
      TEMPO 2415/2418 3000 -SHSN
      BECMG 2418/2421 28009KT
      TEMPO 2418/2424 0800 SHSNGS
      BECMG 2500/2503 32017G27KT
      TEMPO 2500/2503 0800 TSSNGS FEW010 SCT020 BKN030 FEW035CB
日本時間24日18-21時:320度から6ノットの風
21-23時:風が変化
23時-25日03時:170度から3ノットの風
03-06時:風が変化
06-09時:280度から9ノットの風
09-12時:風が変化
12-21時:320度から17ノット、突風27ノット

那覇空港
TAF ROAH 240843Z 2409/2512 04012KT 9999 FEW030 BKN045
      TEMPO 2409/2412 4000 RA
      TEMPO 2415/2418 4000 RA
      TEMPO 2503/2506 36023G33KT
日本時間24日18時-25日21時:040度から12ノットの風
但し、12-15時の間:360度から23ノット、突風33ノット

但し、24日18-21時の間:ときどき
但し、25日00-03時の間:ときどき

マウイのカフルイ空港
TAF PHOG 241141Z 2412/2512 14004KT P6SM SCT050
     FM242000 03010KT P6SM SCT050
     FM250500 13004KT P6SM SCT050
ハワイ時間24日02-10時:140度から4ノットの風
10-19時:030度から10ノットの風
19時-25日02時:130度から4ノットの風

サイパン空港
TAF PGSN 241120Z 2412/2512 05012KT P6SM VCSH SCT020 SCT040
     FM242200 08016G22KT P6SM VCSH SCT020 SCT040
マリアナ時間24日22時-25日08時:050度から12ノットの風
08-22時:080度から16ノット、突風22ノット

コメント
この記事をはてなブックマークに追加

1/23-1/24の航空気象通報(国内、海外)

2012年01月23日 23時11分53秒 | TAF

羽田空港
TAF AMD RJTT 231327Z 2313/2412 01012KT 8000 FEW009 BKN012
      TEMPO 2313/2316 1200 -TSSN BKN004 BKN009 FEW015CB
      TEMPO 2316/2318 4000 -SHSN
      BECMG 2406/2409 10006KT
日本時間23日22時-24日15時:010度から12ノットの風
15-18時:風が変化
18-21時:100度から6ノットの風

但し、23日22時-24日01時の間:ときどき
但し、01-03時の間:ときどき

静岡空港
TAF RJNS 230846Z 2309/2412 26016KT 9999 FEW030
      BECMG 2318/2321 30006KT
      BECMG 2403/2406 24010KT
日本時間23日18時-24日03時:260度から16ノットの風
03-06時:風が変化
06-12時:300度から6ノットの風
12-15時:風が変化
15-21時:240度から10ノットの風

福岡空港
TAF RJFF 230838Z 2309/2412 31011KT 9999 FEW030 BKN045
      TEMPO 2400/2406 3000 -SHSN
日本時間23日18時-24日21時:310度から11ノットの風

但し、24日09-15時の間:ときどき

那覇空港
TAF ROAH 230837Z 2309/2412 01020KT 9999 FEW030 BKN040
      BECMG 2321/2324 03010KT
日本時間23日18時-24日06時:010度から20ノットの風
06-09時:風が変化
09-21時:030度から10ノットの風

マウイのカフルイ空港
TAF PHOG 231125Z 2312/2412 VRB03KT P6SM SCT040
     FM232000 12010KT P6SM SCT040
     FM240700 VRB03KT P6SM SCT040
ハワイ時間23日02-10時:風向不定3ノットの風
10-21時:120度から10ノットの風
21時-24日02時:風向不定3ノットの風

サイパン空港
TAF PGSN 231120Z 2312/2412 07009KT P6SM VCSH SCT015 SCT035
     FM240100 07015G22KT P6SM VCSH SCT018 SCT050
マリアナ時間23日22時-24日11時:070度から9ノットの風
11-22時:070度から15ノット、突風22ノット

コメント
この記事をはてなブックマークに追加